Time;durP1;ratioP1;P1;durP2;ratioP2;P2;SDS_P1;SDS_P2;PMS_P1;PMS_P2;Temp;Humidity;BMP_temperature;BMP_pressure;BME280_temperature;BME280_humidity;BME280_pressure;Samples;Min_cycle;Max_cycle;Signal;HPM_P1;HPM_P2
2022/03/08 00:01:52;;;;;;;11.80;7.07;;;3.30;99.90;;;;;;4931184;28;20248;-80
2022/03/08 00:04:18;;;;;;;10.07;6.63;;;3.20;99.90;;;;;;4944630;28;20917;-79
2022/03/08 00:06:43;;;;;;;11.60;7.17;;;3.20;99.90;;;;;;4924144;28;20209;-79
2022/03/08 00:09:09;;;;;;;12.60;7.57;;;3.20;99.90;;;;;;4974481;28;20189;-78
2022/03/08 00:11:35;;;;;;;11.30;7.40;;;3.10;99.90;;;;;;4941310;28;20192;-78
2022/03/08 00:14:00;;;;;;;9.73;6.23;;;3.10;99.90;;;;;;4957638;28;20227;-80
2022/03/08 00:16:26;;;;;;;11.27;7.40;;;3.10;99.90;;;;;;4909848;28;20188;-79
2022/03/08 00:18:52;;;;;;;12.17;7.07;;;3.10;99.90;;;;;;4949780;28;20670;-79
2022/03/08 00:21:18;;;;;;;13.83;6.87;;;3.10;99.90;;;;;;4956946;28;20224;-80
2022/03/08 00:23:44;;;;;;;12.67;7.03;;;3.10;99.90;;;;;;4944589;28;20188;-79
2022/03/08 00:26:10;;;;;;;9.83;6.27;;;3.10;99.90;;;;;;4926374;28;20205;-78
2022/03/08 00:28:36;;;;;;;13.10;6.63;;;3.10;99.90;;;;;;4973885;28;20208;-77
2022/03/08 00:31:01;;;;;;;12.90;7.03;;;3.10;99.90;;;;;;4944785;28;20188;-78
2022/03/08 00:33:27;;;;;;;11.13;7.07;;;3.00;99.90;;;;;;4940778;28;20192;-77
2022/03/08 00:35:53;;;;;;;11.30;7.00;;;3.00;99.90;;;;;;4955917;28;21084;-79
2022/03/08 00:38:19;;;;;;;11.70;7.03;;;3.00;99.90;;;;;;4924662;28;20267;-80
2022/03/08 00:40:45;;;;;;;12.37;6.03;;;3.00;99.90;;;;;;4957575;28;20242;-80
2022/03/08 00:43:11;;;;;;;14.63;6.33;;;3.00;99.90;;;;;;4954790;28;20948;-80
2022/03/08 00:45:37;;;;;;;13.23;6.40;;;3.00;99.90;;;;;;4957301;28;20205;-77
2022/03/08 00:48:03;;;;;;;13.00;6.80;;;2.90;99.90;;;;;;4973883;28;20197;-79
2022/03/08 00:50:30;;;;;;;13.17;6.57;;;2.90;99.90;;;;;;4953706;28;20197;-78
2022/03/08 00:52:57;;;;;;;13.17;6.17;;;2.90;99.90;;;;;;4940628;28;20559;-80
2022/03/08 00:55:25;;;;;;;11.43;6.80;;;2.90;99.90;;;;;;4941068;28;20671;-79
2022/03/08 00:57:51;;;;;;;10.70;6.33;;;2.90;99.90;;;;;;4957464;28;20354;-80
2022/03/08 01:00:19;;;;;;;9.87;6.90;;;2.90;99.90;;;;;;4957795;28;20697;-79
2022/03/08 01:02:45;;;;;;;10.23;6.33;;;2.90;99.90;;;;;;4957764;28;20282;-80
2022/03/08 01:05:11;;;;;;;12.47;6.37;;;2.80;99.90;;;;;;4956592;28;20364;-79
2022/03/08 01:07:37;;;;;;;11.30;6.73;;;2.80;99.90;;;;;;4940198;28;20637;-78
2022/03/08 01:10:06;;;;;;;10.27;6.10;;;2.80;99.90;;;;;;4941125;28;20550;-79
2022/03/08 01:12:32;;;;;;;12.67;6.47;;;2.70;99.90;;;;;;4954948;28;20245;-79
2022/03/08 01:14:58;;;;;;;10.33;6.07;;;2.70;99.90;;;;;;4928262;28;20192;-80
2022/03/08 01:17:26;;;;;;;13.63;6.77;;;2.70;99.90;;;;;;4973378;28;20747;-79
2022/03/08 01:19:51;;;;;;;13.47;6.60;;;2.70;99.90;;;;;;4955191;28;20342;-78
2022/03/08 01:22:17;;;;;;;10.17;6.47;;;2.70;99.90;;;;;;4940951;28;20667;-78
2022/03/08 01:24:43;;;;;;;12.73;6.03;;;2.70;99.90;;;;;;4957433;28;20679;-78
2022/03/08 01:27:08;;;;;;;11.93;6.20;;;2.60;99.90;;;;;;4940575;28;20189;-79
2022/03/08 01:29:34;;;;;;;10.67;6.03;;;2.70;99.90;;;;;;4974276;28;20339;-79
2022/03/08 01:32:00;;;;;;;11.17;5.70;;;2.60;99.90;;;;;;4941229;28;20549;-80
2022/03/08 01:34:25;;;;;;;9.27;5.80;;;2.60;99.90;;;;;;4954822;28;20347;-78
2022/03/08 01:36:51;;;;;;;9.73;6.03;;;2.60;99.90;;;;;;4938077;28;20203;-78
2022/03/08 01:39:17;;;;;;;9.50;5.87;;;2.60;99.90;;;;;;4943614;28;20212;-76
2022/03/08 01:41:42;;;;;;;9.17;5.80;;;2.50;99.90;;;;;;4940290;28;20189;-79
2022/03/08 01:44:09;;;;;;;9.50;5.57;;;2.50;99.90;;;;;;4941948;28;20291;-79
2022/03/08 01:46:36;;;;;;;13.70;6.80;;;2.50;99.90;;;;;;4973989;28;20243;-79
2022/03/08 01:49:04;;;;;;;11.63;6.77;;;2.50;99.90;;;;;;4958529;28;20200;-78
2022/03/08 01:51:30;;;;;;;10.87;6.07;;;2.40;99.90;;;;;;4955727;28;20244;-78
2022/03/08 01:53:56;;;;;;;13.13;6.53;;;2.50;99.90;;;;;;4973292;28;20248;-78
2022/03/08 01:56:22;;;;;;;11.53;6.60;;;2.40;99.90;;;;;;4954379;28;20204;-78
2022/03/08 01:58:47;;;;;;;14.97;6.20;;;2.40;99.90;;;;;;4938472;28;20240;-79
2022/03/08 02:01:15;;;;;;;10.43;5.83;;;2.40;99.90;;;;;;4937479;28;20678;-79
2022/03/08 02:03:40;;;;;;;12.33;5.67;;;2.40;99.90;;;;;;4956863;28;20347;-78
2022/03/08 02:06:06;;;;;;;9.33;5.90;;;2.40;99.90;;;;;;4975037;28;20216;-79
2022/03/08 02:08:32;;;;;;;10.93;5.83;;;2.30;99.90;;;;;;4942142;28;21412;-79
2022/03/08 02:10:58;;;;;;;9.97;5.43;;;2.30;99.90;;;;;;4923493;28;20229;-80
2022/03/08 02:13:28;;;;;;;10.83;6.00;;;2.30;99.90;;;;;;4956275;28;20213;-78
2022/03/08 02:15:54;;;;;;;9.83;6.00;;;2.30;99.90;;;;;;4928754;28;20185;-80
2022/03/08 02:18:20;;;;;;;13.03;6.10;;;2.20;99.90;;;;;;4924212;28;20220;-78
2022/03/08 02:20:47;;;;;;;10.40;5.90;;;2.30;99.90;;;;;;4943038;28;20245;-79
2022/03/08 02:23:13;;;;;;;8.63;5.63;;;2.30;99.90;;;;;;4956513;28;20533;-78
2022/03/08 02:25:39;;;;;;;9.80;5.83;;;2.20;99.90;;;;;;4976002;28;20186;-78
2022/03/08 02:28:06;;;;;;;8.87;5.37;;;2.30;99.90;;;;;;4975007;28;20196;-79
2022/03/08 02:30:32;;;;;;;9.67;5.93;;;2.20;99.90;;;;;;4927168;28;20227;-79
2022/03/08 02:32:58;;;;;;;9.57;5.17;;;2.20;99.90;;;;;;4957214;28;20797;-79
2022/03/08 02:35:29;;;;;;;8.80;5.37;;;2.30;99.90;;;;;;4941482;28;20212;-80
2022/03/08 02:38:06;;;;;;;11.10;4.93;;;2.30;99.90;;;;;;4958604;28;20561;-80
2022/03/08 02:40:38;;;;;;;8.23;5.00;;;2.40;99.90;;;;;;4975572;28;20574;-80
2022/03/08 02:43:09;;;;;;;11.07;5.27;;;2.40;99.90;;;;;;4973517;28;20785;-79
2022/03/08 02:45:35;;;;;;;11.73;4.97;;;2.40;99.90;;;;;;4974620;28;20185;-80
2022/03/08 02:48:01;;;;;;;10.10;4.77;;;2.40;99.90;;;;;;4951656;28;20243;-79
2022/03/08 02:50:27;;;;;;;8.57;5.00;;;2.50;99.90;;;;;;4951093;28;20843;-78
2022/03/08 02:52:55;;;;;;;7.47;5.07;;;2.50;99.90;;;;;;4976442;28;20228;-79
2022/03/08 02:55:24;;;;;;;8.07;4.90;;;2.50;99.90;;;;;;4945142;28;20205;-77
2022/03/08 02:57:50;;;;;;;8.53;5.20;;;2.60;99.90;;;;;;4958205;28;20260;-78
2022/03/08 03:00:19;;;;;;;8.10;5.27;;;2.60;99.90;;;;;;4945260;28;20680;-78
2022/03/08 03:02:46;;;;;;;10.00;5.20;;;2.70;99.90;;;;;;4944741;28;20290;-78
2022/03/08 03:05:12;;;;;;;7.60;5.00;;;2.70;99.90;;;;;;4944241;28;20193;-79
2022/03/08 03:07:38;;;;;;;9.37;4.67;;;2.70;99.90;;;;;;4978960;28;20255;-79
2022/03/08 03:10:10;;;;;;;10.53;4.87;;;2.70;99.90;;;;;;4979402;28;20639;-78
2022/03/08 03:12:36;;;;;;;7.90;4.60;;;2.70;99.90;;;;;;4983731;28;20189;-80
2022/03/08 03:15:04;;;;;;;8.80;5.50;;;2.70;99.90;;;;;;4983753;28;20208;-79
2022/03/08 03:17:29;;;;;;;8.70;5.10;;;2.60;99.90;;;;;;4969222;28;20208;-78
2022/03/08 03:19:55;;;;;;;7.10;4.13;;;2.60;99.90;;;;;;4949264;28;20220;-79
2022/03/08 03:22:21;;;;;;;7.97;4.77;;;2.60;99.90;;;;;;4950276;28;20220;-79
2022/03/08 03:24:46;;;;;;;11.40;5.50;;;2.60;99.90;;;;;;4950173;28;20194;-79
2022/03/08 03:27:12;;;;;;;6.73;4.80;;;2.60;99.90;;;;;;4925783;28;20185;-79
2022/03/08 03:29:37;;;;;;;10.90;5.70;;;2.50;99.90;;;;;;4929505;28;20212;-80
2022/03/08 03:32:04;;;;;;;9.30;5.20;;;2.50;99.90;;;;;;4955690;28;20197;-79
2022/03/08 03:34:30;;;;;;;7.33;4.87;;;2.50;99.90;;;;;;4958238;28;20283;-79
2022/03/08 03:36:55;;;;;;;7.20;4.67;;;2.50;99.90;;;;;;4955355;28;22802;-80
2022/03/08 03:39:21;;;;;;;8.07;5.10;;;2.50;99.90;;;;;;4929242;28;20192;-79
2022/03/08 03:41:47;;;;;;;8.37;5.17;;;2.40;99.90;;;;;;4938398;28;20203;-79
2022/03/08 03:44:12;;;;;;;10.37;5.30;;;2.40;99.90;;;;;;4940541;28;20300;-78
2022/03/08 03:46:38;;;;;;;8.93;5.40;;;2.40;99.90;;;;;;4942918;28;20815;-79
2022/03/08 03:49:04;;;;;;;10.20;5.30;;;2.40;99.90;;;;;;4975186;28;20185;-78
2022/03/08 03:51:30;;;;;;;12.90;5.57;;;2.40;99.90;;;;;;4942541;28;20259;-79
2022/03/08 03:53:55;;;;;;;8.93;5.30;;;2.40;99.90;;;;;;4928497;28;20192;-79
2022/03/08 03:56:21;;;;;;;10.37;5.47;;;2.30;99.90;;;;;;4958285;28;20284;-78
2022/03/08 03:58:47;;;;;;;10.07;5.77;;;2.30;99.90;;;;;;4972782;28;20241;-79
2022/03/08 04:01:12;;;;;;;9.10;5.00;;;2.30;99.90;;;;;;4940855;28;20239;-79
2022/03/08 04:03:38;;;;;;;8.07;5.23;;;2.30;99.90;;;;;;4943929;28;20235;-80
2022/03/08 04:06:04;;;;;;;8.40;5.17;;;2.30;99.90;;;;;;4943134;28;20189;-79
2022/03/08 04:08:29;;;;;;;8.67;5.80;;;2.20;99.90;;;;;;4942904;28;20659;-77
2022/03/08 04:10:55;;;;;;;8.70;5.63;;;2.20;99.90;;;;;;4925661;28;20189;-79
2022/03/08 04:13:21;;;;;;;10.93;5.50;;;2.30;99.90;;;;;;4961151;28;20223;-80
2022/03/08 04:15:46;;;;;;;11.40;5.70;;;2.20;99.90;;;;;;4954138;28;20200;-79
2022/03/08 04:18:13;;;;;;;8.03;5.50;;;2.20;99.90;;;;;;4957380;28;20205;-78
2022/03/08 04:20:39;;;;;;;8.97;5.47;;;2.10;99.90;;;;;;4956407;28;20219;-79
2022/03/08 04:23:05;;;;;;;10.30;5.77;;;2.20;99.90;;;;;;4955663;28;20252;-78
2022/03/08 04:25:30;;;;;;;10.10;5.53;;;2.10;99.90;;;;;;4958382;28;20189;-78
2022/03/08 04:27:56;;;;;;;7.87;5.30;;;2.10;99.90;;;;;;4940545;28;20221;-79
2022/03/08 04:30:22;;;;;;;11.37;5.40;;;2.10;99.90;;;;;;4959133;28;20216;-78
2022/03/08 04:32:50;;;;;;;9.27;4.97;;;2.10;99.90;;;;;;4958429;28;20189;-79
2022/03/08 04:35:17;;;;;;;13.53;6.10;;;2.20;99.90;;;;;;4960240;28;20195;-78
2022/03/08 04:37:42;;;;;;;9.47;6.03;;;2.00;99.90;;;;;;4941910;28;20228;-79
2022/03/08 04:40:09;;;;;;;10.73;5.40;;;2.00;99.90;;;;;;4972947;28;20235;-79
2022/03/08 04:42:35;;;;;;;10.07;6.20;;;2.00;99.90;;;;;;4957784;28;20727;-79
2022/03/08 04:45:01;;;;;;;8.83;5.73;;;2.00;99.90;;;;;;4936228;28;20220;-79
2022/03/08 04:47:27;;;;;;;10.97;5.73;;;2.00;99.90;;;;;;4940636;28;20214;-80
2022/03/08 04:49:52;;;;;;;9.07;5.67;;;2.00;99.90;;;;;;4939925;28;20193;-79
2022/03/08 04:52:18;;;;;;;9.00;5.00;;;1.90;99.90;;;;;;4973033;28;20221;-79
2022/03/08 04:54:43;;;;;;;9.97;5.57;;;1.90;99.90;;;;;;4940696;28;20205;-77
2022/03/08 04:57:09;;;;;;;10.63;5.70;;;1.90;99.90;;;;;;4958104;28;20212;-79
2022/03/08 04:59:36;;;;;;;9.73;5.90;;;1.90;99.90;;;;;;4958705;28;20812;-79
2022/03/08 05:02:02;;;;;;;12.97;6.57;;;1.90;99.90;;;;;;4974208;28;20711;-79
2022/03/08 05:04:28;;;;;;;11.27;6.30;;;1.90;99.90;;;;;;4972437;28;20300;-80
2022/03/08 05:06:53;;;;;;;12.03;5.97;;;1.90;99.90;;;;;;4921145;28;20203;-78
2022/03/08 05:09:19;;;;;;;11.13;6.13;;;1.80;99.90;;;;;;4955125;28;20769;-79
2022/03/08 05:11:45;;;;;;;10.40;6.40;;;1.80;99.90;;;;;;4952434;28;20283;-79
2022/03/08 05:14:10;;;;;;;11.67;6.23;;;1.80;99.90;;;;;;4924849;28;20532;-79
2022/03/08 05:16:37;;;;;;;12.90;6.50;;;1.80;99.90;;;;;;4955290;28;20180;-80
2022/03/08 05:19:02;;;;;;;10.63;5.93;;;1.70;99.90;;;;;;4940570;28;20208;-78
2022/03/08 05:21:28;;;;;;;8.57;5.23;;;1.70;99.90;;;;;;4939424;28;20734;-79
2022/03/08 05:23:53;;;;;;;13.10;6.20;;;1.70;99.90;;;;;;4925540;28;20275;-79
2022/03/08 05:26:19;;;;;;;10.57;6.30;;;1.70;99.90;;;;;;4939251;28;20184;-79
2022/03/08 05:28:46;;;;;;;15.20;6.37;;;1.70;99.90;;;;;;4956804;28;20211;-78
2022/03/08 05:31:13;;;;;;;10.57;6.10;;;1.70;99.90;;;;;;4953993;28;20366;-79
2022/03/08 05:33:39;;;;;;;11.37;6.37;;;1.60;99.90;;;;;;4972985;28;20195;-79
2022/03/08 05:36:05;;;;;;;9.67;5.87;;;1.60;99.90;;;;;;4955638;28;20538;-79
2022/03/08 05:38:31;;;;;;;9.60;5.37;;;1.60;99.90;;;;;;4943054;28;20197;-79
2022/03/08 05:40:57;;;;;;;11.13;6.00;;;1.60;99.90;;;;;;4940816;28;20275;-79
2022/03/08 05:43:23;;;;;;;12.03;6.13;;;1.60;99.90;;;;;;4957175;28;20297;-79
2022/03/08 05:45:48;;;;;;;11.67;6.40;;;1.60;99.90;;;;;;4969218;28;20654;-79
2022/03/08 05:48:14;;;;;;;13.23;6.20;;;1.60;99.90;;;;;;4926845;28;20311;-80
2022/03/08 05:50:40;;;;;;;9.70;5.97;;;1.60;99.90;;;;;;4940742;28;20204;-78
2022/03/08 05:53:05;;;;;;;12.37;6.33;;;1.60;99.90;;;;;;4931044;28;20210;-80
2022/03/08 05:55:31;;;;;;;9.00;5.90;;;1.50;99.90;;;;;;4978502;28;20548;-80
2022/03/08 05:57:57;;;;;;;10.57;6.10;;;1.50;99.90;;;;;;4944824;28;20228;-79
2022/03/08 06:00:22;;;;;;;15.47;6.97;;;1.50;99.90;;;;;;4948604;28;20243;-80
2022/03/08 06:02:48;;;;;;;10.80;5.77;;;1.50;99.90;;;;;;4930990;28;20196;-80
2022/03/08 06:05:13;;;;;;;10.20;6.77;;;1.50;99.90;;;;;;4961317;28;20222;-79
2022/03/08 06:07:39;;;;;;;9.97;5.97;;;1.50;99.90;;;;;;4946913;28;20829;-79
2022/03/08 06:10:08;;;;;;;10.70;6.40;;;1.50;99.90;;;;;;4959911;28;20207;-79
2022/03/08 06:12:34;;;;;;;14.60;7.13;;;1.50;99.90;;;;;;4963190;28;20631;-79
2022/03/08 06:15:00;;;;;;;16.20;6.03;;;1.50;99.90;;;;;;4945206;28;20842;-79
2022/03/08 06:17:26;;;;;;;11.17;6.90;;;1.50;99.90;;;;;;4979345;28;20191;-79
2022/03/08 06:19:52;;;;;;;10.30;5.87;;;1.50;99.90;;;;;;4980590;28;20239;-78
2022/03/08 06:22:17;;;;;;;8.93;5.87;;;1.50;99.90;;;;;;4947561;28;20215;-78
2022/03/08 06:24:43;;;;;;;10.13;6.60;;;1.40;99.90;;;;;;4945222;28;20196;-77
2022/03/08 06:27:09;;;;;;;13.03;5.97;;;1.50;99.90;;;;;;4960733;28;20196;-79
2022/03/08 06:29:35;;;;;;;10.57;6.03;;;1.50;99.90;;;;;;4961628;28;20196;-78
2022/03/08 06:32:00;;;;;;;10.13;6.43;;;1.50;99.90;;;;;;4980171;28;20224;-78
2022/03/08 06:34:26;;;;;;;15.27;6.83;;;1.50;99.90;;;;;;4963596;28;20197;-79
2022/03/08 06:36:51;;;;;;;12.17;6.50;;;1.60;99.90;;;;;;4964887;28;20192;-79
2022/03/08 06:39:17;;;;;;;11.03;6.30;;;1.60;99.90;;;;;;4964270;28;20197;-79
2022/03/08 06:41:44;;;;;;;11.57;6.33;;;1.70;99.90;;;;;;4968119;28;20216;-79
2022/03/08 06:44:10;;;;;;;12.63;6.47;;;1.70;99.90;;;;;;4969852;28;20716;-78
2022/03/08 06:46:37;;;;;;;13.47;6.20;;;1.80;99.90;;;;;;4968623;28;20205;-79
2022/03/08 06:49:03;;;;;;;12.47;6.60;;;1.90;99.90;;;;;;4968085;28;20184;-78
2022/03/08 06:51:28;;;;;;;11.37;6.57;;;2.00;99.90;;;;;;4948285;28;20287;-79
2022/03/08 06:53:54;;;;;;;13.37;6.13;;;2.00;99.90;;;;;;4963144;28;20195;-79
2022/03/08 06:56:20;;;;;;;12.70;7.03;;;2.00;99.90;;;;;;4960912;28;20608;-79
2022/03/08 06:58:45;;;;;;;12.10;6.10;;;2.10;99.90;;;;;;4946835;28;20236;-77
2022/03/08 07:01:11;;;;;;;11.43;6.63;;;2.00;99.90;;;;;;4968496;28;20335;-79
2022/03/08 07:03:37;;;;;;;12.60;6.03;;;2.00;99.90;;;;;;4958361;28;20219;-79
2022/03/08 07:06:05;;;;;;;11.87;6.33;;;2.10;99.90;;;;;;4961031;28;20185;-79
2022/03/08 07:08:30;;;;;;;14.13;6.77;;;2.10;99.90;;;;;;4963149;28;20181;-80
2022/03/08 07:10:56;;;;;;;13.57;6.80;;;2.10;99.90;;;;;;4929423;28;20820;-80
2022/03/08 07:13:23;;;;;;;10.57;6.77;;;2.10;99.90;;;;;;4958213;28;20267;-79
2022/03/08 07:15:49;;;;;;;15.23;6.40;;;2.10;99.90;;;;;;4926448;28;20200;-79
2022/03/08 07:18:15;;;;;;;14.83;6.63;;;2.10;99.90;;;;;;4977425;28;20193;-80
2022/03/08 07:20:40;;;;;;;10.93;6.70;;;2.20;99.90;;;;;;4931484;28;20708;-79
2022/03/08 07:23:06;;;;;;;11.10;6.60;;;2.10;99.90;;;;;;4960828;28;20196;-78
2022/03/08 07:25:32;;;;;;;11.40;6.93;;;2.20;99.90;;;;;;4946377;28;20238;-78
2022/03/08 07:27:58;;;;;;;10.70;6.50;;;2.20;99.90;;;;;;4979002;28;20283;-79
2022/03/08 07:30:23;;;;;;;13.90;6.43;;;2.20;99.90;;;;;;4945802;28;20291;-79
2022/03/08 07:32:51;;;;;;;13.80;6.97;;;2.30;99.90;;;;;;4946323;28;20264;-81
2022/03/08 07:35:17;;;;;;;11.10;6.43;;;2.30;99.90;;;;;;4944764;28;20189;-80
2022/03/08 07:37:42;;;;;;;10.73;6.40;;;2.30;99.90;;;;;;4959932;28;20196;-77
2022/03/08 07:40:09;;;;;;;13.00;7.13;;;2.30;99.90;;;;;;4958952;28;20244;-79
2022/03/08 07:42:34;;;;;;;11.33;5.97;;;2.40;99.90;;;;;;4961685;28;20656;-79
2022/03/08 07:45:00;;;;;;;12.47;6.93;;;2.50;99.90;;;;;;4945621;28;20193;-80
2022/03/08 07:47:26;;;;;;;10.93;6.53;;;2.50;99.90;;;;;;4930464;28;20180;-80
2022/03/08 07:49:51;;;;;;;11.23;6.27;;;2.50;99.90;;;;;;4976779;28;20204;-78
2022/03/08 07:52:17;;;;;;;9.73;6.47;;;2.60;99.90;;;;;;4961756;28;20208;-79
2022/03/08 07:54:43;;;;;;;11.27;6.63;;;2.60;99.90;;;;;;4930308;28;20189;-80
2022/03/08 07:57:08;;;;;;;11.33;6.80;;;2.60;99.90;;;;;;4944249;28;20196;-79
2022/03/08 07:59:34;;;;;;;10.37;6.27;;;2.70;99.90;;;;;;4944051;28;20228;-80
2022/03/08 08:02:01;;;;;;;10.90;6.67;;;2.70;99.90;;;;;;4961236;28;20196;-79
2022/03/08 08:04:26;;;;;;;10.97;6.30;;;2.80;99.90;;;;;;4959977;28;20202;-79
2022/03/08 08:06:52;;;;;;;10.97;6.33;;;2.90;99.90;;;;;;4932478;28;20299;-79
2022/03/08 08:09:18;;;;;;;9.77;6.07;;;2.90;99.90;;;;;;4955319;28;20196;-81
2022/03/08 08:11:43;;;;;;;11.63;6.00;;;3.00;99.90;;;;;;4941314;28;20237;-79
2022/03/08 08:14:09;;;;;;;12.17;5.87;;;3.00;99.90;;;;;;4927551;28;20214;-78
2022/03/08 08:16:35;;;;;;;9.20;5.60;;;3.10;99.90;;;;;;4929657;28;20291;-77
2022/03/08 08:19:00;;;;;;;12.43;5.47;;;3.10;99.90;;;;;;4947402;28;20334;-78
2022/03/08 08:21:26;;;;;;;12.27;5.60;;;3.20;99.90;;;;;;4976003;28;20240;-79
2022/03/08 08:23:52;;;;;;;9.57;5.80;;;3.20;99.90;;;;;;4944005;28;20269;-79
2022/03/08 08:26:18;;;;;;;10.17;5.80;;;3.30;99.90;;;;;;4978588;28;20535;-79
2022/03/08 08:28:43;;;;;;;10.30;5.77;;;3.40;99.90;;;;;;4942069;28;20228;-79
2022/03/08 08:31:09;;;;;;;13.23;6.03;;;3.40;99.90;;;;;;4944656;28;20535;-79
2022/03/08 08:33:35;;;;;;;8.20;5.43;;;3.50;99.90;;;;;;4961393;28;20288;-80
2022/03/08 08:36:01;;;;;;;12.17;5.90;;;3.60;99.90;;;;;;4977463;28;20200;-79
2022/03/08 08:38:28;;;;;;;10.10;5.70;;;3.60;99.90;;;;;;4955152;28;20212;-79
2022/03/08 08:40:54;;;;;;;9.40;5.40;;;3.60;99.90;;;;;;4958187;28;20232;-79
2022/03/08 08:43:20;;;;;;;9.70;5.33;;;3.70;99.90;;;;;;4976954;28;20280;-79
2022/03/08 08:45:51;;;;;;;10.10;5.83;;;3.90;99.90;;;;;;4974104;28;20687;-80
2022/03/08 08:48:17;;;;;;;13.70;5.70;;;5.40;99.90;;;;;;4958377;28;20181;-79
2022/03/08 08:50:42;;;;;;;8.10;5.30;;;7.50;99.90;;;;;;4956714;28;20630;-78
2022/03/08 08:53:08;;;;;;;11.00;5.40;;;9.20;99.90;;;;;;4977485;28;20219;-79
2022/03/08 08:55:36;;;;;;;8.07;5.13;;;10.60;99.90;;;;;;4957648;28;20192;-79
2022/03/08 08:58:06;;;;;;;8.23;5.27;;;11.60;99.90;;;;;;4958418;28;20220;-78
2022/03/08 09:00:34;;;;;;;7.30;5.10;;;12.30;99.30;;;;;;4957285;28;20235;-79
2022/03/08 09:02:59;;;;;;;6.70;5.00;;;12.90;97.60;;;;;;4977942;28;20178;-79
2022/03/08 09:05:25;;;;;;;9.93;5.37;;;13.30;96.00;;;;;;4978278;28;20598;-79
2022/03/08 09:07:51;;;;;;;11.70;5.60;;;13.70;94.80;;;;;;4946910;28;20199;-79
2022/03/08 09:10:19;;;;;;;13.67;5.53;;;14.10;93.50;;;;;;4943679;28;20234;-79
2022/03/08 09:12:49;;;;;;;8.23;5.17;;;14.30;92.10;;;;;;4959074;28;20228;-79
2022/03/08 09:15:15;;;;;;;11.83;6.00;;;14.40;90.90;;;;;;4956057;28;20914;-80
2022/03/08 09:17:41;;;;;;;8.77;5.47;;;14.90;90.30;;;;;;4942261;28;20227;-79
2022/03/08 09:20:07;;;;;;;9.73;5.97;;;15.30;88.40;;;;;;4971277;28;20720;-80
2022/03/08 09:22:33;;;;;;;7.30;5.10;;;15.60;86.00;;;;;;4941686;28;20241;-80
2022/03/08 09:24:59;;;;;;;6.97;4.90;;;15.80;83.50;;;;;;4958927;28;20276;-78
2022/03/08 09:27:25;;;;;;;7.40;5.40;;;16.10;81.30;;;;;;4975125;28;20193;-79
2022/03/08 09:29:50;;;;;;;8.17;5.20;;;16.20;79.20;;;;;;4976966;28;20351;-79
2022/03/08 09:32:17;;;;;;;8.33;4.90;;;16.20;77.90;;;;;;4942407;28;20260;-82
2022/03/08 09:34:42;;;;;;;11.93;5.60;;;16.30;75.60;;;;;;4940297;28;20237;-79
2022/03/08 09:37:08;;;;;;;9.03;5.20;;;16.40;74.70;;;;;;4959093;28;20232;-80
2022/03/08 09:39:35;;;;;;;6.97;5.30;;;16.80;73.50;;;;;;4976844;28;20274;-79
2022/03/08 09:42:01;;;;;;;9.53;5.07;;;17.30;71.90;;;;;;4957220;28;20758;-80
2022/03/08 09:44:29;;;;;;;9.77;5.83;;;17.60;69.80;;;;;;4974563;28;20682;-79
2022/03/08 09:46:56;;;;;;;10.67;4.67;;;17.70;67.90;;;;;;4937606;28;20649;-80
2022/03/08 09:49:21;;;;;;;13.53;5.00;;;17.70;66.60;;;;;;4940891;28;20203;-80
2022/03/08 09:51:47;;;;;;;10.50;5.20;;;17.70;65.20;;;;;;4926581;28;20279;-80
2022/03/08 09:54:13;;;;;;;15.63;5.23;;;17.70;64.00;;;;;;4949587;28;20224;-80
2022/03/08 09:56:39;;;;;;;9.67;5.20;;;17.80;63.20;;;;;;4941895;28;20343;-80
2022/03/08 09:59:04;;;;;;;8.73;5.23;;;17.90;62.10;;;;;;4958423;28;20326;-81
2022/03/08 10:01:31;;;;;;;12.13;5.50;;;18.10;61.10;;;;;;4942523;28;20216;-80
2022/03/08 10:03:56;;;;;;;9.67;4.93;;;18.50;60.50;;;;;;4955534;28;20816;-80
2022/03/08 10:06:22;;;;;;;9.13;4.87;;;18.90;59.50;;;;;;4958113;28;20196;-81
2022/03/08 10:08:48;;;;;;;8.23;5.10;;;19.20;58.10;;;;;;4925790;28;20315;-81
2022/03/08 10:11:14;;;;;;;6.77;5.27;;;19.20;56.70;;;;;;4943501;28;20202;-80
2022/03/08 10:13:47;;;;;;;6.87;5.10;;;19.10;56.10;;;;;;4958833;28;20315;-79
2022/03/08 10:16:25;;;;;;;5.90;4.67;;;19.20;55.40;;;;;;4976330;28;20188;-79
2022/03/08 10:19:04;;;;;;;8.03;5.00;;;19.40;54.60;;;;;;4959058;28;20192;-79
2022/03/08 10:21:33;;;;;;;6.93;4.37;;;19.80;53.60;;;;;;4973249;28;20209;-79
2022/03/08 10:24:05;;;;;;;8.07;4.80;;;19.90;53.20;;;;;;4956580;28;20296;-80
2022/03/08 10:26:41;;;;;;;9.73;4.87;;;20.30;52.60;;;;;;4971364;28;20308;-81
2022/03/08 10:29:07;;;;;;;6.67;5.20;;;20.80;51.80;;;;;;4959500;28;20574;-81
2022/03/08 10:31:33;;;;;;;9.50;4.73;;;21.00;50.80;;;;;;4956935;28;20210;-80
2022/03/08 10:34:04;;;;;;;8.37;4.83;;;21.20;50.00;;;;;;4974392;28;20207;-79
2022/03/08 10:36:31;;;;;;;7.67;4.70;;;21.40;48.90;;;;;;4957765;28;20279;-80
2022/03/08 10:39:14;;;;;;;6.67;4.60;;;21.50;48.60;;;;;;4963637;28;20203;-80
2022/03/08 10:41:50;;;;;;;9.33;4.80;;;21.80;47.20;;;;;;4963911;28;20575;-79
2022/03/08 10:44:29;;;;;;;5.60;4.37;;;21.70;46.10;;;;;;4963890;28;20205;-80
2022/03/08 10:47:08;;;;;;;10.43;4.27;;;21.60;46.20;;;;;;4979544;28;20248;-79
2022/03/08 10:49:59;;;;;;;8.00;4.60;;;21.90;45.70;;;;;;4961245;28;20311;-80
2022/03/08 10:52:33;;;;;;;5.87;4.47;;;22.00;45.30;;;;;;4946416;28;20216;-80
2022/03/08 10:55:19;;;;;;;5.77;4.53;;;21.50;44.20;;;;;;4963011;28;21281;-80
2022/03/08 10:57:56;;;;;;;6.73;4.10;;;21.30;43.70;;;;;;4982056;28;20205;-80
2022/03/08 11:00:25;;;;;;;7.80;4.57;;;21.30;43.40;;;;;;4980423;28;20261;-79
2022/03/08 11:02:57;;;;;;;8.40;4.70;;;21.50;43.50;;;;;;4978063;28;20248;-79
2022/03/08 11:05:34;;;;;;;8.57;5.23;;;21.50;43.00;;;;;;4977483;28;20265;-80
2022/03/08 11:08:00;;;;;;;8.07;4.70;;;21.80;42.50;;;;;;4959340;28;20307;-80
2022/03/08 11:10:27;;;;;;;5.97;4.73;;;21.80;42.30;;;;;;4957761;28;20291;-78
2022/03/08 11:12:54;;;;;;;5.97;4.40;;;21.60;41.70;;;;;;4961168;28;20289;-80
2022/03/08 11:15:21;;;;;;;8.37;4.90;;;21.80;41.80;;;;;;4964169;28;20435;-79
2022/03/08 11:17:49;;;;;;;8.67;4.60;;;21.70;41.20;;;;;;4962644;28;20570;-80
2022/03/08 11:20:18;;;;;;;4.90;4.40;;;21.60;41.00;;;;;;4960284;28;20212;-81
2022/03/08 11:22:46;;;;;;;6.23;4.30;;;21.90;41.10;;;;;;4944750;28;20247;-78
2022/03/08 11:25:16;;;;;;;10.37;4.67;;;22.10;40.80;;;;;;4945354;28;20182;-80
2022/03/08 11:27:43;;;;;;;8.13;4.93;;;22.40;40.40;;;;;;4958818;28;20204;-79
2022/03/08 11:30:13;;;;;;;9.67;4.47;;;22.50;40.20;;;;;;4959961;28;20222;-79
2022/03/08 11:33:01;;;;;;;8.13;4.53;;;22.90;40.10;;;;;;4977049;28;20606;-80
2022/03/08 11:35:41;;;;;;;11.20;5.00;;;23.30;39.50;;;;;;4960691;28;20216;-79
2022/03/08 11:38:13;;;;;;;5.17;4.60;;;23.60;38.90;;;;;;4945647;28;20312;-80
2022/03/08 11:40:45;;;;;;;7.43;4.83;;;23.40;38.40;;;;;;4960174;28;20308;-79
2022/03/08 11:43:11;;;;;;;7.27;4.43;;;23.30;38.50;;;;;;4957298;28;20208;-79
2022/03/08 11:45:37;;;;;;;6.07;4.93;;;23.00;38.10;;;;;;4942718;28;20264;-80
2022/03/08 11:48:05;;;;;;;6.70;4.37;;;22.90;38.10;;;;;;4961490;28;20295;-80
2022/03/08 11:50:37;;;;;;;8.07;4.87;;;22.80;37.70;;;;;;4960309;28;20281;-80
2022/03/08 11:53:10;;;;;;;7.87;4.67;;;22.40;37.50;;;;;;4944812;28;20997;-79
2022/03/08 11:55:44;;;;;;;8.27;4.80;;;22.00;37.50;;;;;;4945610;28;20194;-80
2022/03/08 11:58:19;;;;;;;6.10;4.30;;;21.50;37.50;;;;;;4947402;28;20210;-79
2022/03/08 12:00:58;;;;;;;8.53;4.57;;;20.20;37.70;;;;;;4931566;28;20246;-80
2022/03/08 12:03:24;;;;;;;6.20;4.40;;;18.20;38.60;;;;;;4947554;28;20644;-80
2022/03/08 12:06:13;;;;;;;9.20;5.03;;;16.50;39.90;;;;;;4943500;28;20279;-78
2022/03/08 12:08:43;;;;;;;8.50;4.90;;;15.20;41.00;;;;;;4978236;28;20209;-79
2022/03/08 12:11:26;;;;;;;9.50;5.10;;;14.40;41.90;;;;;;4964566;28;20201;-79
2022/03/08 12:14:14;;;;;;;10.23;5.30;;;13.80;42.70;;;;;;4942762;28;20212;-80
2022/03/08 12:16:45;;;;;;;7.17;5.10;;;13.60;43.90;;;;;;4959746;28;20506;-81
2022/03/08 12:19:13;;;;;;;9.37;5.43;;;14.50;44.40;;;;;;4960780;28;20193;-80
2022/03/08 12:21:42;;;;;;;8.67;5.23;;;15.60;44.10;;;;;;4962492;28;20232;-79
2022/03/08 12:24:08;;;;;;;8.00;5.00;;;16.60;43.40;;;;;;4944882;28;20667;-80
2022/03/08 12:26:38;;;;;;;8.90;5.33;;;17.40;42.60;;;;;;4961065;28;20235;-79
2022/03/08 12:29:15;;;;;;;9.00;5.17;;;17.40;41.90;;;;;;4978724;28;20198;-80
2022/03/08 12:32:14;;;;;;;12.03;5.23;;;16.50;41.80;;;;;;4960138;28;20713;-79
2022/03/08 12:34:46;;;;;;;8.57;5.00;;;15.30;42.40;;;;;;4980016;28;20185;-79
2022/03/08 12:37:24;;;;;;;7.20;4.77;;;14.50;43.20;;;;;;4960155;28;20194;-79
2022/03/08 12:40:07;;;;;;;10.80;4.90;;;13.80;43.90;;;;;;4978421;28;20663;-80
2022/03/08 12:42:39;;;;;;;9.13;5.60;;;13.20;44.40;;;;;;4945622;28;20189;-79
2022/03/08 12:45:10;;;;;;;6.83;4.80;;;12.80;44.90;;;;;;4944505;28;20624;-79
2022/03/08 12:47:42;;;;;;;8.40;5.23;;;12.50;45.20;;;;;;4978041;28;20198;-78
2022/03/08 12:50:13;;;;;;;7.50;4.73;;;12.30;45.50;;;;;;4978196;28;20809;-79